Aérodrome :
LOGIN :

S'inscrire | Disclaimer

   EN    FR    IT 

 










Légende :    VFR   VFR Marginal   IFR   IFR Intensif   IFR Très Intensif
Visi : 
Plafond : 
>= 8 km
>= 3000ft
5 à 8 km
1000 à 3000 ft
1500m à 5 km
500 à 1000 ft
800 à 1500m
200 à 500 ft
< 800m
< 200 ft
Symboles :   Orages  Brouillard  Fortes neiges  Fortes précipitations  Vent > 20 kt
SIGMETs :   Divers  Orages  Givrage  Turbulence  Onde Orograph.  Cendres Volcan.






- Altitude de l'aérodrome : 53 ft
- Code IATA : HAM


EDDH - Hamburg

DERNIER METAR :
  • 201120Z VRB02KT 4500 -RA BR BKN005 05/04 Q1019 TEMPO 6000 BKN004

METARs EXPIRÉS :
  • 201050Z 31002KT 4200 -RA BR FEW003 BKN006 05/04 Q1019 TEMPO 6000 BKN004
  • 201020Z VRB02KT 4600 -RA BR FEW003 BKN005 04/03 Q1019 TEMPO 6000 BKN004
  • 200950Z VRB01KT 4000 -RA BR OVC003 04/03 Q1019 TEMPO 2500
  • 200920Z VRB02KT 3000 -RA BR OVC003 04/03 Q1020 TEMPO 2500
  • 200850Z 06004KT 050V110 3000 -RA BR OVC003 04/03 Q1020 TEMPO 2500

TAF TAF EDDH
Valide du 20 à 06h jusqu'au 21 à 12h UTC


200500Z 2006/2112 VRB03KT 3500 BR BKN004
TEMPO 2006/2009 0400 FG BKN001
BECMG 2009/2011 6000 BKN009
TEMPO 2009/2016 2500 -RA
PROB40
TEMPO 2011/2020 BKN012
PROB30
TEMPO 2020/2024 1200 BCFG BKN004
PROB30
TEMPO 2100/2108 0600 FG BKN004
BECMG 2105/2107 05005KT
TEMPO 2108/2112 4500 -RA



MET'MAP, la Météo Aéronautique d'un coup d'oeil ! - Copyright ORBIFLY Décembre 2007 - Disclaimer

ORBIFLY MET'MAP TEAM :

Programmation & Développement : Alexandra Zaïnal
Conception & Développement : Baudouin d'Aumeries
Co-Programmation & Développement : Marc-Olivier Méhu
Soutien technique & logistique : Manuel Goepfert

Contact : metmap@orbifly.com




SOURCES & CREDITS :

   NOAA